Fort Kent Mills, Maine
Current Conditions -  °F | °C
As of 5:53 AM on Tuesday 21 Oct 2014 (Local Time) from KFVE Reporting Station
Clear Clear  
Wind Chill: 23°   Ceiling: Unl
Heat Index: 28°   Visibility: 10mi
Dew Point: 24°   Wind: 5mph
Humidity: 85%   Direction: 240°WSW
Pressure: 30.01"   Gusts: NA
Location:  47.24°N, 68.58°W
Report Text: KFVE 210953Z AUTO 24004KT 10SM CLR M02/M04 A3001 RMK AO2 SLP171 T10221044
Loading
Personal Weather Stations






























Interactive Weather Map
Tropical Storm Tracking
New forecast layout! Learn more

10-Day Weather Forecast

Advertisements
Track Severe Weather on mobile